Terminal Aerodrome Forecast
Issued by NWS

Home | Current Version | Previous Version | Text Only | Print | Product List | Glossary On
Versions: 1 2 3 4 5 6 7 8 9 10 11 12 13 14 15 16 17
000
FTUS45 KSLC 211723
TAFPVU
TAF
KPVU 211723Z 2118/2218 14007KT P6SM FEW090
     FM212000 29009KT P6SM VCSH SCT080 BKN200
     FM220200 VRB04KT P6SM FEW090 SCT200
     FM221700 29010KT P6SM FEW100=

USA.gov is the U.S. government's official web portal to all federal, state and local government web resources and services.